Time;durP1;ratioP1;P1;durP2;ratioP2;P2;SDS_P1;SDS_P2;PMS_P1;PMS_P2;Temp;Humidity;BMP_temperature;BMP_pressure;BME280_temperature;BME280_humidity;BME280_pressure;Samples;Min_cycle;Max_cycle;Signal;HPM_P1;HPM_P2
2022/08/17 00:01:54;;;;;;;34.58;29.02;;;;;;;;;;5022051;28;20026;-72
2022/08/17 00:04:21;;;;;;;35.33;31.13;;;;;;;;;;5030993;28;20426;-72
2022/08/17 00:06:47;;;;;;;34.17;30.55;;;;;;;;;;5028868;28;20483;-72
2022/08/17 00:09:13;;;;;;;33.50;29.60;;;;;;;;;;5026790;28;20029;-73
2022/08/17 00:11:41;;;;;;;34.08;29.80;;;;;;;;;;5033141;28;20692;-72
2022/08/17 00:14:13;;;;;;;39.63;32.33;;;;;;;;;;5025755;28;20065;-74
2022/08/17 00:16:43;;;;;;;35.10;31.30;;;;;;;;;;5043431;28;20473;-73
2022/08/17 00:19:11;;;;;;;40.92;32.88;;;;;;;;;;5024449;28;20037;-71
2022/08/17 00:21:38;;;;;;;34.15;29.67;;;;;;;;;;5029431;28;20033;-71
2022/08/17 00:24:04;;;;;;;39.47;31.70;;;;;;;;;;5030524;28;20123;-76
2022/08/17 00:26:30;;;;;;;37.92;31.45;;;;;;;;;;5029707;28;20060;-71
2022/08/17 00:28:56;;;;;;;37.25;30.90;;;;;;;;;;5027664;28;20029;-72
2022/08/17 00:31:23;;;;;;;36.20;31.35;;;;;;;;;;5028892;28;20117;-71
2022/08/17 00:33:49;;;;;;;42.00;34.15;;;;;;;;;;5028759;28;20433;-72
2022/08/17 00:36:16;;;;;;;40.88;33.47;;;;;;;;;;5034097;28;20095;-71
2022/08/17 00:38:42;;;;;;;36.85;31.88;;;;;;;;;;5029974;28;20116;-72
2022/08/17 00:41:10;;;;;;;38.97;33.53;;;;;;;;;;5025135;28;20087;-76
2022/08/17 00:43:47;;;;;;;38.95;33.65;;;;;;;;;;5029005;28;20064;-72
2022/08/17 00:46:14;;;;;;;42.63;34.85;;;;;;;;;;5029580;28;20109;-76
2022/08/17 00:48:41;;;;;;;39.03;32.60;;;;;;;;;;5028492;28;20044;-72
2022/08/17 00:51:10;;;;;;;47.00;36.42;;;;;;;;;;5031161;28;20076;-73
2022/08/17 00:53:38;;;;;;;42.22;34.78;;;;;;;;;;5034004;28;20547;-72
2022/08/17 00:56:05;;;;;;;41.38;35.33;;;;;;;;;;5034944;28;20034;-72
2022/08/17 00:58:32;;;;;;;41.55;33.72;;;;;;;;;;5024781;28;20030;-71
2022/08/17 01:01:00;;;;;;;41.60;34.65;;;;;;;;;;5033951;28;20037;-72
2022/08/17 01:03:27;;;;;;;40.70;35.83;;;;;;;;;;5026942;28;20037;-73
2022/08/17 01:05:54;;;;;;;47.13;36.28;;;;;;;;;;5032990;28;20438;-72
2022/08/17 01:08:23;;;;;;;42.83;35.63;;;;;;;;;;5027643;28;21041;-71
2022/08/17 01:10:52;;;;;;;40.90;34.88;;;;;;;;;;5031610;28;20029;-73
2022/08/17 01:13:20;;;;;;;47.72;37.90;;;;;;;;;;5007570;28;20036;-73
2022/08/17 01:15:48;;;;;;;48.92;37.05;;;;;;;;;;5048397;28;20127;-79
2022/08/17 01:18:15;;;;;;;41.80;34.05;;;;;;;;;;5049814;28;20095;-73
2022/08/17 01:20:43;;;;;;;38.15;32.75;;;;;;;;;;5073988;28;20061;-73
2022/08/17 01:23:10;;;;;;;54.05;33.95;;;;;;;;;;5048259;28;20025;-75
2022/08/17 01:25:36;;;;;;;55.55;33.10;;;;;;;;;;5039782;28;20025;-72
2022/08/17 01:28:04;;;;;;;49.88;30.48;;;;;;;;;;5048235;28;20037;-76
2022/08/17 01:30:30;;;;;;;55.28;34.75;;;;;;;;;;5050429;28;20419;-73
2022/08/17 01:32:56;;;;;;;53.92;41.33;;;;;;;;;;5048244;28;20025;-73
2022/08/17 01:35:23;;;;;;;38.28;34.13;;;;;;;;;;5045904;28;20033;-78
2022/08/17 01:37:49;;;;;;;40.78;25.95;;;;;;;;;;5050178;28;20139;-73
2022/08/17 01:40:22;;;;;;;49.80;26.33;;;;;;;;;;5052621;28;20111;-71
2022/08/17 01:42:48;;;;;;;34.10;25.58;;;;;;;;;;5028484;28;20057;-71
2022/08/17 01:45:17;;;;;;;41.92;24.63;;;;;;;;;;5047628;28;20491;-71
2022/08/17 01:47:43;;;;;;;46.97;25.77;;;;;;;;;;5027105;28;20052;-71
2022/08/17 01:50:10;;;;;;;39.55;21.95;;;;;;;;;;5048336;28;20029;-71
2022/08/17 01:52:36;;;;;;;39.40;22.30;;;;;;;;;;5041966;28;20032;-76
2022/08/17 01:55:03;;;;;;;26.08;23.30;;;;;;;;;;5043701;28;20440;-72
2022/08/17 01:57:29;;;;;;;35.13;23.20;;;;;;;;;;5041803;28;20033;-71
2022/08/17 01:59:55;;;;;;;38.65;21.90;;;;;;;;;;5038897;28;20053;-72
2022/08/17 02:02:22;;;;;;;47.20;23.30;;;;;;;;;;5040204;28;20116;-72
2022/08/17 02:04:48;;;;;;;45.42;26.67;;;;;;;;;;5026620;28;20033;-72
2022/08/17 02:07:15;;;;;;;106.53;25.42;;;;;;;;;;5058627;28;20049;-71
2022/08/17 02:09:42;;;;;;;55.20;23.95;;;;;;;;;;5050223;28;20028;-78
2022/08/17 02:12:09;;;;;;;54.95;25.35;;;;;;;;;;5066388;28;20174;-71
2022/08/17 02:14:35;;;;;;;69.28;23.23;;;;;;;;;;5048926;28;20033;-72
2022/08/17 02:17:01;;;;;;;41.25;22.45;;;;;;;;;;5054231;28;20028;-76
2022/08/17 02:19:27;;;;;;;31.52;21.98;;;;;;;;;;5049711;28;20052;-76
2022/08/17 02:21:53;;;;;;;58.33;23.85;;;;;;;;;;5043961;28;20032;-72
2022/08/17 02:24:25;;;;;;;30.75;20.35;;;;;;;;;;5054190;28;20036;-71
2022/08/17 02:26:51;;;;;;;33.55;22.02;;;;;;;;;;5036183;28;20044;-72
2022/08/17 02:29:18;;;;;;;55.53;21.75;;;;;;;;;;5046039;28;20652;-77
2022/08/17 02:31:45;;;;;;;38.95;21.40;;;;;;;;;;5040800;28;20037;-71
2022/08/17 02:34:11;;;;;;;44.05;20.80;;;;;;;;;;5048487;28;20481;-71
2022/08/17 02:36:37;;;;;;;22.08;19.67;;;;;;;;;;5048391;28;20068;-71
2022/08/17 02:39:04;;;;;;;25.58;20.08;;;;;;;;;;5045591;28;20384;-71
2022/08/17 02:41:30;;;;;;;34.30;19.23;;;;;;;;;;5045982;28;20033;-71
2022/08/17 02:43:56;;;;;;;28.33;19.63;;;;;;;;;;5041409;28;20111;-71
2022/08/17 02:46:24;;;;;;;40.35;18.83;;;;;;;;;;5045938;28;20044;-71
2022/08/17 02:48:50;;;;;;;33.70;19.30;;;;;;;;;;5055071;28;20040;-71
2022/08/17 02:51:16;;;;;;;21.88;19.48;;;;;;;;;;5037662;28;20052;-73
2022/08/17 02:53:42;;;;;;;24.02;19.63;;;;;;;;;;5053050;28;20021;-71
2022/08/17 02:56:08;;;;;;;44.30;18.63;;;;;;;;;;5046595;28;20053;-76
2022/08/17 02:58:35;;;;;;;30.75;18.35;;;;;;;;;;5049400;28;20331;-71
2022/08/17 03:01:02;;;;;;;54.28;19.95;;;;;;;;;;5045999;28;20136;-72
2022/08/17 03:03:28;;;;;;;55.28;19.60;;;;;;;;;;5037070;28;20041;-72
2022/08/17 03:05:54;;;;;;;43.15;21.42;;;;;;;;;;5043954;28;20037;-71
2022/08/17 03:08:21;;;;;;;21.58;18.85;;;;;;;;;;5042995;28;20045;-71
2022/08/17 03:10:47;;;;;;;37.30;19.27;;;;;;;;;;5046145;28;20426;-71
2022/08/17 03:13:15;;;;;;;62.20;18.83;;;;;;;;;;5043943;28;20036;-72
2022/08/17 03:15:44;;;;;;;35.78;21.65;;;;;;;;;;5043378;28;20091;-71
2022/08/17 03:18:10;;;;;;;59.72;20.30;;;;;;;;;;5046998;28;20041;-71
2022/08/17 03:20:36;;;;;;;74.72;19.23;;;;;;;;;;5049512;28;20025;-70
2022/08/17 03:23:03;;;;;;;80.25;20.65;;;;;;;;;;5047364;28;20086;-71
2022/08/17 03:25:31;;;;;;;95.60;20.33;;;;;;;;;;5043945;28;20029;-71
2022/08/17 03:27:57;;;;;;;63.88;18.33;;;;;;;;;;5047646;28;20029;-71
2022/08/17 03:30:25;;;;;;;36.95;19.23;;;;;;;;;;5051322;28;20037;-71
2022/08/17 03:32:53;;;;;;;43.97;18.42;;;;;;;;;;5057437;28;20086;-73
2022/08/17 03:35:21;;;;;;;46.70;18.13;;;;;;;;;;5050876;28;20123;-71
2022/08/17 03:37:47;;;;;;;36.42;17.20;;;;;;;;;;5041791;28;20025;-71
2022/08/17 03:40:13;;;;;;;32.28;18.23;;;;;;;;;;5039702;28;20024;-71
2022/08/17 03:42:39;;;;;;;44.55;19.33;;;;;;;;;;5046125;28;20033;-71
2022/08/17 03:45:07;;;;;;;44.28;19.50;;;;;;;;;;5045926;28;20029;-71
2022/08/17 03:58:36;;;;;;;20.60;18.55;;;;;;;;;;5038452;28;20052;-72
2022/08/17 04:01:02;;;;;;;60.50;21.40;;;;;;;;;;5008806;28;20114;-76
2022/08/17 04:03:28;;;;;;;34.22;22.02;;;;;;;;;;5044220;28;20036;-73
2022/08/17 04:05:54;;;;;;;35.75;20.90;;;;;;;;;;5037539;28;20029;-74
2022/08/17 04:08:20;;;;;;;44.15;20.15;;;;;;;;;;5034972;28;20476;-75
2022/08/17 04:10:46;;;;;;;52.85;20.65;;;;;;;;;;5034260;28;20033;-75
2022/08/17 04:13:13;;;;;;;45.47;20.63;;;;;;;;;;5024744;28;20033;-78
2022/08/17 04:15:39;;;;;;;59.42;33.35;;;;;;;;;;5036476;28;20052;-74
2022/08/17 04:18:06;;;;;;;49.08;21.58;;;;;;;;;;5047166;28;20036;-77
2022/08/17 04:20:32;;;;;;;54.75;22.38;;;;;;;;;;5049706;28;20504;-78
2022/08/17 04:23:01;;;;;;;65.75;21.75;;;;;;;;;;5061954;28;20040;-77
2022/08/17 04:25:28;;;;;;;39.03;19.30;;;;;;;;;;5043708;28;20029;-77
2022/08/17 04:27:54;;;;;;;25.58;19.95;;;;;;;;;;5037184;28;20507;-73
2022/08/17 04:30:20;;;;;;;22.80;18.30;;;;;;;;;;5044999;28;20029;-78
2022/08/17 04:32:52;;;;;;;24.23;17.52;;;;;;;;;;5050537;28;20033;-73
2022/08/17 04:35:24;;;;;;;40.95;18.98;;;;;;;;;;5053014;28;20088;-73
2022/08/17 04:37:51;;;;;;;34.70;19.85;;;;;;;;;;5049547;28;20029;-74
2022/08/17 04:43:07;;;;;;;20.05;17.98;;;;;;;;;;5050223;28;20060;-74
2022/08/17 04:45:33;;;;;;;19.60;17.58;;;;;;;;;;5051393;28;20085;-73
2022/08/17 04:48:00;;;;;;;20.83;18.98;;;;;;;;;;5039269;28;20507;-76
2022/08/17 04:50:26;;;;;;;21.80;18.60;;;;;;;;;;5047654;28;20025;-73
2022/08/17 04:52:52;;;;;;;24.02;20.40;;;;;;;;;;5025689;28;20079;-74
2022/08/17 04:55:18;;;;;;;24.05;20.98;;;;;;;;;;5047051;28;20061;-77
2022/08/17 04:57:44;;;;;;;26.30;23.38;;;;;;;;;;5046565;28;20431;-72
2022/08/17 05:00:11;;;;;;;42.97;27.63;;;;;;;;;;5054598;28;20025;-77
2022/08/17 05:02:50;;;;;;;35.05;28.33;;;;;;;;;;5061235;28;20029;-73
2022/08/17 05:05:18;;;;;;;35.67;25.95;;;;;;;;;;5044606;28;20040;-71
2022/08/17 05:07:44;;;;;;;29.95;23.80;;;;;;;;;;5050140;28;20071;-72
2022/08/17 05:10:10;;;;;;;29.38;23.88;;;;;;;;;;5061868;28;20036;-76
2022/08/17 05:12:36;;;;;;;28.80;22.27;;;;;;;;;;5049093;28;20543;-72
2022/08/17 05:15:03;;;;;;;29.88;24.70;;;;;;;;;;5055347;28;20388;-74
2022/08/17 05:17:29;;;;;;;25.20;22.58;;;;;;;;;;5015316;28;20134;-79
2022/08/17 05:19:55;;;;;;;28.20;22.73;;;;;;;;;;5064519;28;20037;-72
2022/08/17 05:22:23;;;;;;;25.83;23.05;;;;;;;;;;5046109;28;20030;-72
2022/08/17 05:24:49;;;;;;;24.63;21.85;;;;;;;;;;5033414;28;20064;-72
2022/08/17 05:27:15;;;;;;;24.38;21.88;;;;;;;;;;5051397;28;20050;-73
2022/08/17 05:29:41;;;;;;;23.45;21.05;;;;;;;;;;5047271;28;20063;-73
2022/08/17 05:32:11;;;;;;;24.73;21.15;;;;;;;;;;5048902;28;20112;-75
2022/08/17 05:34:37;;;;;;;24.63;22.00;;;;;;;;;;5048792;28;20044;-73
2022/08/17 05:37:04;;;;;;;28.40;22.73;;;;;;;;;;5050466;28;20118;-73
2022/08/17 05:39:30;;;;;;;25.75;23.15;;;;;;;;;;5039572;28;20037;-72
2022/08/17 05:41:56;;;;;;;50.90;23.52;;;;;;;;;;5058083;28;20029;-71
2022/08/17 05:44:23;;;;;;;24.98;21.98;;;;;;;;;;5039124;28;20110;-71
2022/08/17 05:46:50;;;;;;;25.23;22.17;;;;;;;;;;5054202;28;20028;-71
2022/08/17 05:49:18;;;;;;;30.65;23.35;;;;;;;;;;5056037;28;20053;-71
2022/08/17 05:51:56;;;;;;;30.73;25.52;;;;;;;;;;5036198;28;20473;-71
2022/08/17 05:54:46;;;;;;;35.47;29.50;;;;;;;;;;5042803;28;20045;-71
2022/08/17 05:57:19;;;;;;;34.80;26.50;;;;;;;;;;5046221;28;20036;-71
2022/08/17 05:59:48;;;;;;;34.97;29.02;;;;;;;;;;5046457;28;20525;-72
2022/08/17 06:02:20;;;;;;;34.15;26.90;;;;;;;;;;5046700;28;20029;-76
2022/08/17 06:05:04;;;;;;;34.15;27.95;;;;;;;;;;5047545;28;20079;-71
2022/08/17 06:07:36;;;;;;;36.25;28.77;;;;;;;;;;5041437;28;20088;-71
2022/08/17 06:10:05;;;;;;;35.95;28.50;;;;;;;;;;5031601;28;20068;-74
2022/08/17 06:12:50;;;;;;;34.50;29.10;;;;;;;;;;5048625;28;20033;-71
2022/08/17 06:15:24;;;;;;;33.35;29.02;;;;;;;;;;5035670;28;20506;-71
2022/08/17 06:17:58;;;;;;;37.60;31.08;;;;;;;;;;5049543;28;20021;-71
2022/08/17 06:20:26;;;;;;;36.80;30.58;;;;;;;;;;5037494;28;20456;-71
2022/08/17 06:22:55;;;;;;;34.95;30.02;;;;;;;;;;5047062;28;20603;-72
2022/08/17 06:25:33;;;;;;;44.92;31.73;;;;;;;;;;5056893;28;20128;-71
2022/08/17 06:28:04;;;;;;;44.97;32.15;;;;;;;;;;5048184;28;20025;-72
2022/08/17 06:30:33;;;;;;;43.17;32.67;;;;;;;;;;5046176;28;20661;-72
2022/08/17 06:33:04;;;;;;;45.45;33.83;;;;;;;;;;5040724;28;20044;-73
2022/08/17 06:35:38;;;;;;;43.95;32.88;;;;;;;;;;5046198;28;20040;-72
2022/08/17 06:38:07;;;;;;;48.10;35.35;;;;;;;;;;5047885;28;20496;-72
2022/08/17 06:40:48;;;;;;;46.08;35.88;;;;;;;;;;5049208;28;20296;-73
2022/08/17 06:43:23;;;;;;;41.87;33.20;;;;;;;;;;5038279;28;20098;-72
2022/08/17 06:45:57;;;;;;;47.60;36.28;;;;;;;;;;5047783;28;20025;-76
2022/08/17 06:48:40;;;;;;;48.92;35.50;;;;;;;;;;5048677;28;20458;-72
2022/08/17 06:51:14;;;;;;;51.00;35.78;;;;;;;;;;5045539;28;20063;-73
2022/08/17 06:53:44;;;;;;;42.15;34.72;;;;;;;;;;5040094;28;20036;-72
2022/08/17 06:56:12;;;;;;;40.85;31.90;;;;;;;;;;5046633;28;20044;-72
2022/08/17 06:58:39;;;;;;;44.35;35.10;;;;;;;;;;5051242;28;20024;-72
2022/08/17 07:01:09;;;;;;;46.58;36.72;;;;;;;;;;5049683;28;20429;-72
2022/08/17 07:03:46;;;;;;;49.88;37.72;;;;;;;;;;5046775;28;20053;-72
2022/08/17 07:06:14;;;;;;;47.42;37.10;;;;;;;;;;5046275;28;20040;-73
2022/08/17 07:08:40;;;;;;;48.75;36.65;;;;;;;;;;5057247;28;20048;-73
2022/08/17 07:11:09;;;;;;;49.80;38.05;;;;;;;;;;5046165;28;20422;-74
2022/08/17 07:13:46;;;;;;;50.08;38.72;;;;;;;;;;5040530;28;20087;-73
2022/08/17 07:16:27;;;;;;;48.13;35.58;;;;;;;;;;5046078;28;20037;-72
2022/08/17 07:18:56;;;;;;;46.30;36.57;;;;;;;;;;5052547;28;20033;-72
2022/08/17 07:21:31;;;;;;;43.88;33.55;;;;;;;;;;5043429;28;20279;-72
2022/08/17 07:24:13;;;;;;;46.05;35.78;;;;;;;;;;5066430;28;20032;-71
2022/08/17 07:26:39;;;;;;;53.28;37.88;;;;;;;;;;5049753;28;20032;-71
2022/08/17 07:29:05;;;;;;;44.08;35.45;;;;;;;;;;5040928;28;20052;-73
2022/08/17 07:31:32;;;;;;;44.00;34.60;;;;;;;;;;5042990;28;20075;-72
2022/08/17 07:34:16;;;;;;;46.10;35.70;;;;;;;;;;5047602;28;20405;-72
2022/08/17 07:36:42;;;;;;;44.13;34.50;;;;;;;;;;5042748;28;20041;-77
2022/08/17 07:39:10;;;;;;;39.85;34.58;;;;;;;;;;5041976;28;20059;-72
2022/08/17 07:41:41;;;;;;;38.78;33.10;;;;;;;;;;5041838;28;20532;-73
2022/08/17 07:44:11;;;;;;;44.63;33.72;;;;;;;;;;5031725;28;20512;-72
2022/08/17 07:49:32;;;;;;;38.58;31.33;;;;;;;;;;5040144;28;20503;-72
2022/08/17 07:52:00;;;;;;;39.92;31.77;;;;;;;;;;5046273;28;21142;-71
2022/08/17 07:54:28;;;;;;;38.78;33.10;;;;;;;;;;5047637;28;20068;-72
2022/08/17 07:57:00;;;;;;;39.95;30.63;;;;;;;;;;5039440;28;20570;-73
2022/08/17 07:59:29;;;;;;;38.95;31.88;;;;;;;;;;5041980;28;20040;-72
2022/08/17 08:02:03;;;;;;;37.53;29.85;;;;;;;;;;5050900;28;20091;-75
2022/08/17 08:04:42;;;;;;;43.30;32.45;;;;;;;;;;5043061;28;20025;-76
2022/08/17 08:07:13;;;;;;;45.38;34.97;;;;;;;;;;5047672;28;20040;-72
2022/08/17 08:09:42;;;;;;;42.08;32.25;;;;;;;;;;5046603;28;20393;-72
2022/08/17 08:12:23;;;;;;;33.40;29.15;;;;;;;;;;5051655;28;20104;-72
2022/08/17 08:14:55;;;;;;;40.35;32.88;;;;;;;;;;5050969;28;20052;-73
2022/08/17 08:17:22;;;;;;;38.22;30.65;;;;;;;;;;5045196;28;20032;-73
2022/08/17 08:19:48;;;;;;;44.20;34.38;;;;;;;;;;5049368;28;20090;-73
2022/08/17 08:22:27;;;;;;;39.75;32.63;;;;;;;;;;5043523;28;20040;-72
2022/08/17 08:25:07;;;;;;;41.42;34.95;;;;;;;;;;5052140;28;20021;-72
2022/08/17 08:27:33;;;;;;;41.13;33.90;;;;;;;;;;5036245;28;20024;-72
2022/08/17 08:30:10;;;;;;;40.60;31.45;;;;;;;;;;5052318;28;20531;-72
2022/08/17 08:32:46;;;;;;;41.28;35.08;;;;;;;;;;5056613;28;20091;-72
2022/08/17 08:35:33;;;;;;;41.17;31.63;;;;;;;;;;5050670;28;20033;-72
2022/08/17 08:38:06;;;;;;;40.60;32.00;;;;;;;;;;5062694;28;20452;-77
2022/08/17 08:40:38;;;;;;;40.70;30.98;;;;;;;;;;5046470;28;20036;-72
2022/08/17 08:43:25;;;;;;;36.60;30.85;;;;;;;;;;5049449;28;20469;-72
2022/08/17 08:45:55;;;;;;;44.47;32.53;;;;;;;;;;5043963;28;20033;-72
2022/08/17 08:48:21;;;;;;;39.65;31.83;;;;;;;;;;5067082;28;20041;-72
2022/08/17 08:50:59;;;;;;;38.28;31.02;;;;;;;;;;5050740;28;20021;-74
2022/08/17 08:53:35;;;;;;;45.58;34.58;;;;;;;;;;5036806;28;20492;-72
2022/08/17 08:56:10;;;;;;;42.90;32.50;;;;;;;;;;5047854;28;20044;-72
2022/08/17 08:58:43;;;;;;;40.75;33.00;;;;;;;;;;5054985;28;20488;-72
2022/08/17 09:01:26;;;;;;;42.22;33.38;;;;;;;;;;5050097;28;20065;-72
2022/08/17 09:04:04;;;;;;;43.53;34.85;;;;;;;;;;5034550;28;21712;-72
2022/08/17 09:06:48;;;;;;;50.30;38.63;;;;;;;;;;5049219;28;20431;-73
2022/08/17 09:09:20;;;;;;;44.10;34.78;;;;;;;;;;5057129;28;20036;-73
2022/08/17 09:11:54;;;;;;;51.25;37.60;;;;;;;;;;5050786;28;20025;-72
2022/08/17 09:14:38;;;;;;;54.03;37.05;;;;;;;;;;5043706;28;20029;-72
2022/08/17 09:17:13;;;;;;;45.38;35.88;;;;;;;;;;5051896;28;20037;-77
2022/08/17 09:20:02;;;;;;;52.63;38.65;;;;;;;;;;5046991;28;20132;-72
2022/08/17 09:22:32;;;;;;;49.83;36.88;;;;;;;;;;5048830;28;20528;-72
2022/08/17 09:25:05;;;;;;;48.75;35.53;;;;;;;;;;5054487;28;20040;-72
2022/08/17 09:27:37;;;;;;;43.70;35.35;;;;;;;;;;5046389;28;20037;-73
2022/08/17 09:30:03;;;;;;;;;;;;;;;;;;5053359;28;20474;-72
2022/08/17 09:32:48;;;;;;;38.75;31.40;;;;;;;;;;5048371;28;20011;-73
2022/08/17 09:35:42;;;;;;;42.63;33.78;;;;;;;;;;5050167;28;21481;-72
2022/08/17 09:38:19;;;;;;;36.58;31.55;;;;;;;;;;5014009;28;20042;-73
2022/08/17 09:41:08;;;;;;;36.88;31.02;;;;;;;;;;5049469;28;20082;-72
2022/08/17 09:43:53;;;;;;;38.40;32.15;;;;;;;;;;5042902;28;20040;-72
2022/08/17 09:46:25;;;;;;;40.35;33.08;;;;;;;;;;5041889;28;20099;-73
2022/08/17 09:48:57;;;;;;;34.55;28.90;;;;;;;;;;5055752;28;20113;-72
2022/08/17 09:51:26;;;;;;;36.25;28.98;;;;;;;;;;5038280;28;20025;-76
2022/08/17 09:53:53;;;;;;;33.63;27.52;;;;;;;;;;5046905;28;20044;-72
2022/08/17 09:56:26;;;;;;;31.95;28.52;;;;;;;;;;5046159;28;20052;-72
2022/08/17 09:58:54;;;;;;;29.25;24.50;;;;;;;;;;5044779;28;20727;-72
2022/08/17 10:01:30;;;;;;;30.30;25.13;;;;;;;;;;5058796;28;20021;-77
2022/08/17 10:04:05;;;;;;;26.70;23.85;;;;;;;;;;5054095;28;20033;-72
2022/08/17 10:06:35;;;;;;;22.90;20.35;;;;;;;;;;5047084;28;20481;-71
2022/08/17 10:09:07;;;;;;;21.42;16.55;;;;;;;;;;5047162;28;20028;-76
2022/08/17 10:14:36;;;;;;;18.02;16.05;;;;;;;;;;5047797;28;20174;-70
2022/08/17 10:17:20;;;;;;;17.58;15.57;;;;;;;;;;5053559;28;20040;-71
2022/08/17 10:19:57;;;;;;;21.73;17.23;;;;;;;;;;5044577;28;20036;-71
2022/08/17 10:28:01;;;;;;;16.20;14.30;;;;;;;;;;5044423;28;20090;-71
2022/08/17 10:30:30;;;;;;;19.35;13.93;;;;;;;;;;5046665;28;20032;-72
2022/08/17 10:32:58;;;;;;;16.27;13.65;;;;;;;;;;5041706;28;20029;-71
2022/08/17 10:35:27;;;;;;;14.85;13.05;;;;;;;;;;5044256;28;20069;-72
2022/08/17 10:37:58;;;;;;;15.30;11.95;;;;;;;;;;5048298;28;20024;-73
2022/08/17 10:40:43;;;;;;;17.98;12.43;;;;;;;;;;5046463;28;20033;-72
2022/08/17 10:43:28;;;;;;;13.40;11.63;;;;;;;;;;5047053;28;20047;-73
2022/08/17 10:46:01;;;;;;;12.00;10.70;;;;;;;;;;5038425;28;20519;-73
2022/08/17 10:48:35;;;;;;;15.20;12.05;;;;;;;;;;5030296;28;21226;-74
2022/08/17 10:51:06;;;;;;;13.15;10.65;;;;;;;;;;5042111;28;20033;-72
2022/08/17 10:53:32;;;;;;;16.67;11.90;;;;;;;;;;5045015;28;20029;-72
2022/08/17 10:56:14;;;;;;;11.35;10.15;;;;;;;;;;5040369;28;20036;-72
2022/08/17 10:58:46;;;;;;;13.50;10.32;;;;;;;;;;5043728;28;20025;-72
2022/08/17 11:01:12;;;;;;;16.08;10.45;;;;;;;;;;5043584;28;20033;-73
2022/08/17 11:03:51;;;;;;;14.63;10.38;;;;;;;;;;5043789;28;20029;-71
2022/08/17 11:06:46;;;;;;;13.77;10.07;;;;;;;;;;5029324;28;20080;-71
2022/08/17 11:09:15;;;;;;;13.65;9.45;;;;;;;;;;5061629;28;20025;-72
2022/08/17 11:11:42;;;;;;;13.40;10.50;;;;;;;;;;5043146;28;20033;-72
2022/08/17 11:14:23;;;;;;;12.85;10.57;;;;;;;;;;5046452;28;20968;-72
2022/08/17 11:16:49;;;;;;;14.55;10.60;;;;;;;;;;5051840;28;20045;-72
2022/08/17 11:19:37;;;;;;;14.10;10.35;;;;;;;;;;5026795;28;20091;-71
2022/08/17 11:22:15;;;;;;;10.98;9.85;;;;;;;;;;5044051;28;20155;-72
2022/08/17 11:24:46;;;;;;;12.10;9.82;;;;;;;;;;5045595;28;20029;-71
2022/08/17 11:27:27;;;;;;;10.75;9.55;;;;;;;;;;5036515;28;20056;-74
2022/08/17 11:29:58;;;;;;;12.85;8.10;;;;;;;;;;5051172;28;20040;-72
2022/08/17 11:32:39;;;;;;;10.18;7.70;;;;;;;;;;5032112;28;20043;-72
2022/08/17 11:35:10;;;;;;;9.83;7.63;;;;;;;;;;5032703;28;20121;-72
2022/08/17 11:37:49;;;;;;;11.25;7.57;;;;;;;;;;5038802;28;20315;-76
2022/08/17 11:40:34;;;;;;;11.23;8.80;;;;;;;;;;5055849;28;20032;-72
2022/08/17 11:43:16;;;;;;;13.43;8.90;;;;;;;;;;5055354;28;20037;-71
2022/08/17 11:46:15;;;;;;;13.55;9.48;;;;;;;;;;5048943;28;20533;-72
2022/08/17 11:51:53;;;;;;;13.27;11.10;;;;;;;;;;5051925;28;20044;-73
2022/08/17 11:54:19;;;;;;;;;;;;;;;;;;5061082;28;20041;-71
2022/08/17 11:56:49;;;;;;;19.88;11.57;;;;;;;;;;5051152;28;19920;-74
2022/08/17 11:59:49;;;;;;;18.73;12.55;;;;;;;;;;5051616;28;20035;-73
2022/08/17 12:02:33;;;;;;;16.90;13.07;;;;;;;;;;5047582;28;20108;-73
2022/08/17 12:05:15;;;;;;;17.20;12.15;;;;;;;;;;5046322;28;20083;-73
2022/08/17 12:07:41;;;;;;;12.43;10.75;;;;;;;;;;5050582;28;20029;-74
2022/08/17 12:10:10;;;;;;;14.55;10.85;;;;;;;;;;5043937;28;20126;-73
2022/08/17 12:12:42;;;;;;;13.88;9.73;;;;;;;;;;5050122;28;20097;-73
2022/08/17 12:15:16;;;;;;;12.25;9.57;;;;;;;;;;5047031;28;20045;-73
2022/08/17 12:17:49;;;;;;;16.27;10.02;;;;;;;;;;5055814;28;20107;-72
2022/08/17 12:20:22;;;;;;;14.07;9.82;;;;;;;;;;5039231;28;20033;-72
2022/08/17 12:22:53;;;;;;;13.20;10.48;;;;;;;;;;5049953;28;20508;-73
2022/08/17 12:25:41;;;;;;;13.05;9.18;;;;;;;;;;5049505;28;20044;-72
2022/08/17 12:28:23;;;;;;;12.32;10.82;;;;;;;;;;5046803;28;20035;-72
2022/08/17 12:30:50;;;;;;;15.15;11.93;;;;;;;;;;5037106;28;20029;-73
2022/08/17 12:33:18;;;;;;;12.93;11.10;;;;;;;;;;5052427;28;20114;-72
2022/08/17 12:35:45;;;;;;;19.35;11.43;;;;;;;;;;5047586;28;20045;-74
2022/08/17 12:38:14;;;;;;;12.32;10.98;;;;;;;;;;5051537;28;20028;-74
2022/08/17 12:40:52;;;;;;;15.45;13.57;;;;;;;;;;5046306;28;20043;-73
2022/08/17 12:43:19;;;;;;;17.50;12.63;;;;;;;;;;5044857;28;20032;-72
2022/08/17 12:45:53;;;;;;;22.33;14.48;;;;;;;;;;5041936;28;20061;-72
2022/08/17 12:48:23;;;;;;;17.33;14.48;;;;;;;;;;5044531;28;20125;-72
2022/08/17 12:50:50;;;;;;;16.55;14.27;;;;;;;;;;5029728;28;20025;-73
2022/08/17 12:53:19;;;;;;;17.13;14.38;;;;;;;;;;5048841;28;20033;-72
2022/08/17 12:55:45;;;;;;;16.15;14.18;;;;;;;;;;5038872;28;20116;-73
2022/08/17 12:58:13;;;;;;;18.27;14.85;;;;;;;;;;5042357;28;20026;-72
2022/08/17 13:00:40;;;;;;;22.60;15.35;;;;;;;;;;5055523;28;20377;-73
2022/08/17 13:03:18;;;;;;;20.33;14.25;;;;;;;;;;5065078;28;20469;-72
2022/08/17 13:05:55;;;;;;;15.75;13.45;;;;;;;;;;5038413;28;20061;-73
2022/08/17 13:08:34;;;;;;;18.75;14.23;;;;;;;;;;5048108;28;20424;-73
2022/08/17 13:11:03;;;;;;;15.60;13.77;;;;;;;;;;5052438;28;20030;-71
2022/08/17 13:13:31;;;;;;;18.88;14.20;;;;;;;;;;5049537;28;20377;-71
2022/08/17 13:16:26;;;;;;;15.15;13.38;;;;;;;;;;5045436;28;20053;-72
2022/08/17 13:19:11;;;;;;;15.93;12.98;;;;;;;;;;5030330;28;20134;-72
2022/08/17 13:21:43;;;;;;;20.15;14.18;;;;;;;;;;5042013;28;20116;-71
2022/08/17 13:24:16;;;;;;;16.92;12.95;;;;;;;;;;5047731;28;20476;-71
2022/08/17 13:26:52;;;;;;;16.33;12.45;;;;;;;;;;5025273;28;20159;-73
2022/08/17 13:29:37;;;;;;;16.52;12.73;;;;;;;;;;5054569;28;20473;-73
2022/08/17 13:32:05;;;;;;;20.42;13.07;;;;;;;;;;5065141;28;20041;-72
2022/08/17 13:34:34;;;;;;;16.45;14.00;;;;;;;;;;5042037;28;20033;-78
2022/08/17 13:37:19;;;;;;;17.33;14.07;;;;;;;;;;5049284;28;20079;-74
2022/08/17 13:39:45;;;;;;;17.48;13.88;;;;;;;;;;5050063;28;20132;-72
2022/08/17 13:42:30;;;;;;;19.13;13.60;;;;;;;;;;5027289;28;20056;-72
2022/08/17 13:44:56;;;;;;;17.75;13.70;;;;;;;;;;5046507;28;20091;-72
2022/08/17 13:47:23;;;;;;;16.73;14.82;;;;;;;;;;5045574;28;20465;-72
2022/08/17 13:49:50;;;;;;;16.73;13.80;;;;;;;;;;5039662;28;20794;-76
2022/08/17 13:52:34;;;;;;;18.20;14.05;;;;;;;;;;5048057;28;20033;-71
2022/08/17 13:55:02;;;;;;;20.15;14.77;;;;;;;;;;5046634;28;20357;-71
2022/08/17 13:57:28;;;;;;;18.30;13.27;;;;;;;;;;5047349;28;20025;-72
2022/08/17 14:00:06;;;;;;;18.20;12.43;;;;;;;;;;5048596;28;20033;-73
2022/08/17 14:02:32;;;;;;;15.73;12.68;;;;;;;;;;5049686;28;20754;-72
2022/08/17 14:05:00;;;;;;;15.90;13.02;;;;;;;;;;5048806;28;20083;-71
2022/08/17 14:07:28;;;;;;;14.48;12.18;;;;;;;;;;5045783;28;20044;-71
2022/08/17 14:09:57;;;;;;;14.68;11.70;;;;;;;;;;5047796;28;20029;-71
2022/08/17 14:12:25;;;;;;;15.25;12.35;;;;;;;;;;5043321;28;20029;-71
2022/08/17 14:14:52;;;;;;;16.88;12.25;;;;;;;;;;5049172;28;20025;-72
2022/08/17 14:17:18;;;;;;;15.68;11.52;;;;;;;;;;5041495;28;20126;-71
2022/08/17 14:19:44;;;;;;;16.00;11.48;;;;;;;;;;5047900;28;20033;-71
2022/08/17 14:22:17;;;;;;;19.60;12.38;;;;;;;;;;5047625;28;20037;-74
2022/08/17 14:24:43;;;;;;;14.40;11.75;;;;;;;;;;5042994;28;20037;-74
2022/08/17 14:27:09;;;;;;;17.92;12.32;;;;;;;;;;5048492;28;20049;-72
2022/08/17 14:29:35;;;;;;;15.75;11.98;;;;;;;;;;5039961;28;20032;-72
2022/08/17 14:32:03;;;;;;;16.00;11.95;;;;;;;;;;5048774;28;20043;-72
2022/08/17 14:34:29;;;;;;;20.27;13.88;;;;;;;;;;5046855;28;20056;-73
2022/08/17 14:36:55;;;;;;;17.33;12.07;;;;;;;;;;5047430;28;20048;-72
2022/08/17 14:39:23;;;;;;;14.48;12.38;;;;;;;;;;5047500;28;20037;-72
2022/08/17 14:41:49;;;;;;;20.98;14.25;;;;;;;;;;5049808;28;20037;-75
2022/08/17 14:44:15;;;;;;;16.17;13.30;;;;;;;;;;5046332;28;20453;-71
2022/08/17 14:46:42;;;;;;;16.83;12.05;;;;;;;;;;5043608;28;20371;-71
2022/08/17 14:49:09;;;;;;;19.00;13.60;;;;;;;;;;5044845;28;20110;-71
2022/08/17 14:51:37;;;;;;;15.13;13.13;;;;;;;;;;5048009;28;20032;-71
2022/08/17 14:54:03;;;;;;;16.17;13.82;;;;;;;;;;5046644;28;20075;-75
2022/08/17 14:56:29;;;;;;;19.13;13.90;;;;;;;;;;5052339;28;20647;-72
2022/08/17 14:58:55;;;;;;;19.90;14.10;;;;;;;;;;5053552;28;20427;-72
2022/08/17 15:01:23;;;;;;;18.02;13.60;;;;;;;;;;5044882;28;20040;-73
2022/08/17 15:03:49;;;;;;;16.70;12.93;;;;;;;;;;5050705;28;20040;-72
2022/08/17 15:06:16;;;;;;;16.00;12.75;;;;;;;;;;5043404;28;20503;-71
2022/08/17 15:08:42;;;;;;;15.50;13.73;;;;;;;;;;5041942;28;20464;-71